createdAt,value
2022-09-15T00:01:08.736Z,87.04
2022-09-15T00:03:42.569Z,87.25
2022-09-15T00:06:10.233Z,87.39
2022-09-15T00:08:37.685Z,87.51
2022-09-15T00:11:14.435Z,87.82
2022-09-15T00:13:41.633Z,87.77
2022-09-15T00:16:13.600Z,87.88
2022-09-15T00:18:44.231Z,88.02
2022-09-15T00:21:17.309Z,88.02
2022-09-15T00:23:44.517Z,88.19
2022-09-15T00:26:14.218Z,88.31
2022-09-15T00:28:41.382Z,88.33
2022-09-15T00:31:11.605Z,88.38
2022-09-15T00:33:38.710Z,88.56
2022-09-15T00:36:09.464Z,88.77
2022-09-15T00:38:37.554Z,88.92
2022-09-15T00:41:06.354Z,88.77
2022-09-15T00:43:45.210Z,88.81
2022-09-15T00:46:13.450Z,88.83
2022-09-15T00:48:48.414Z,88.80
2022-09-15T00:51:20.164Z,88.79
2022-09-15T00:53:49.045Z,88.75
2022-09-15T00:56:19.234Z,88.63
2022-09-15T00:58:55.895Z,88.65
2022-09-15T01:01:26.325Z,88.58
2022-09-15T01:03:54.666Z,88.54
2022-09-15T01:06:37.129Z,88.48
2022-09-15T01:09:12.586Z,88.41
2022-09-15T01:11:41.520Z,88.39
2022-09-15T01:14:08.632Z,88.40
2022-09-15T01:16:37.912Z,88.42
2022-09-15T01:19:42.368Z,88.36
2022-09-15T01:22:22.126Z,88.32
2022-09-15T01:25:00.894Z,88.34
2022-09-15T01:28:05.457Z,88.41
2022-09-15T01:30:37.482Z,88.51
2022-09-15T01:33:36.951Z,88.45
2022-09-15T01:36:12.585Z,88.57
2022-09-15T01:39:10.095Z,88.62
2022-09-15T01:41:51.297Z,88.68
2022-09-15T01:44:27.438Z,88.75
2022-09-15T01:46:58.097Z,88.86
2022-09-15T01:49:28.728Z,88.89
2022-09-15T01:51:55.604Z,88.91
2022-09-15T01:54:29.457Z,88.91
2022-09-15T01:56:56.675Z,88.82
2022-09-15T01:59:23.604Z,88.87
2022-09-15T02:02:06.789Z,88.82
2022-09-15T02:04:40.056Z,88.87
2022-09-15T02:07:12.374Z,88.86
2022-09-15T02:10:11.441Z,88.87
2022-09-15T02:12:47.781Z,88.88
2022-09-15T02:15:24.498Z,88.81
2022-09-15T02:17:55.487Z,88.81
2022-09-15T02:20:41.093Z,88.81
2022-09-15T02:23:16.844Z,88.86
2022-09-15T02:25:48.458Z,88.85
2022-09-15T02:28:18.934Z,88.89
2022-09-15T02:30:48.596Z,88.92
2022-09-15T02:33:20.282Z,88.95
2022-09-15T02:35:47.306Z,89.07
2022-09-15T02:38:14.715Z,89.14
2022-09-15T02:40:44.238Z,89.29
2022-09-15T02:43:14.561Z,89.31
2022-09-15T02:45:41.442Z,89.41
2022-09-15T02:48:09.244Z,89.38
2022-09-15T02:50:37.760Z,89.40
2022-09-15T02:53:04.900Z,89.43
2022-09-15T02:55:31.865Z,89.42
2022-09-15T02:57:58.953Z,89.41
2022-09-15T03:00:27.813Z,89.49
2022-09-15T03:02:55.404Z,89.47
2022-09-15T03:05:25.702Z,89.46
2022-09-15T03:07:52.964Z,89.43
2022-09-15T03:10:20.464Z,89.43
2022-09-15T03:12:49.958Z,89.39
2022-09-15T03:15:21.052Z,89.34
2022-09-15T03:17:48.307Z,89.33
2022-09-15T03:20:19.774Z,89.33
2022-09-15T03:22:47.337Z,89.39
2022-09-15T03:25:13.986Z,89.40
2022-09-15T03:27:41.958Z,89.49
2022-09-15T03:30:10.294Z,89.47
2022-09-15T03:32:37.647Z,89.51
2022-09-15T03:35:06.259Z,89.54
2022-09-15T03:37:34.110Z,89.57
2022-09-15T03:40:00.827Z,89.66
2022-09-15T03:42:27.570Z,89.66
2022-09-15T03:44:54.299Z,89.65
2022-09-15T03:47:21.233Z,89.68
2022-09-15T03:49:47.894Z,89.68
2022-09-15T03:52:14.734Z,89.69
2022-09-15T03:54:41.613Z,89.74
2022-09-15T03:57:08.180Z,89.80
2022-09-15T03:59:34.756Z,89.88
2022-09-15T04:02:01.512Z,89.86
2022-09-15T04:04:28.454Z,89.87
2022-09-15T04:06:55.005Z,89.85
2022-09-15T04:09:21.693Z,89.89
2022-09-15T04:11:48.489Z,89.95
2022-09-15T04:14:15.085Z,90.05
2022-09-15T04:16:41.814Z,90.09
2022-09-15T04:19:08.479Z,90.15
2022-09-15T04:21:35.457Z,90.16
2022-09-15T04:24:04.480Z,90.22
2022-09-15T04:26:34.766Z,90.18
2022-09-15T04:29:04.666Z,90.23
2022-09-15T04:31:33.433Z,90.29
2022-09-15T04:34:00.930Z,90.38
2022-09-15T04:36:29.189Z,90.37
2022-09-15T04:38:57.757Z,90.51
2022-09-15T04:41:26.109Z,90.52
2022-09-15T04:43:54.081Z,90.45
2022-09-15T04:46:21.444Z,90.41
2022-09-15T04:48:48.495Z,90.43
2022-09-15T04:51:18.760Z,90.55
2022-09-15T04:53:46.434Z,90.58
2022-09-15T04:56:16.618Z,90.60
2022-09-15T04:58:46.454Z,90.53
2022-09-15T05:01:21.961Z,90.48
2022-09-15T05:03:49.673Z,90.55
2022-09-15T05:06:20.523Z,90.61
2022-09-15T05:08:53.316Z,90.65
2022-09-15T05:11:20.818Z,90.62
2022-09-15T05:13:48.022Z,90.62
2022-09-15T05:16:17.826Z,90.59
2022-09-15T05:18:46.210Z,90.59
2022-09-15T05:21:15.449Z,90.58
2022-09-15T05:23:43.113Z,90.54
2022-09-15T05:26:15.693Z,90.52
2022-09-15T05:28:42.969Z,90.47
2022-09-15T05:31:17.576Z,90.44
2022-09-15T05:33:45.986Z,90.40
2022-09-15T05:36:14.646Z,90.35
2022-09-15T05:38:41.976Z,90.30
2022-09-15T05:41:12.174Z,90.27
2022-09-15T05:43:39.685Z,90.25
2022-09-15T05:46:07.357Z,90.19
2022-09-15T05:48:34.819Z,90.13
2022-09-15T05:51:02.635Z,90.09
2022-09-15T05:53:30.472Z,90.04
2022-09-15T05:55:59.075Z,89.84
2022-09-15T05:58:26.284Z,86.72
2022-09-15T06:00:53.984Z,84.45
2022-09-15T06:03:25.305Z,82.93
2022-09-15T06:06:06.313Z,83.81
2022-09-15T06:08:35.825Z,84.06
2022-09-15T06:11:08.026Z,84.25
2022-09-15T06:13:34.883Z,84.36
2022-09-15T06:16:06.255Z,84.42
2022-09-15T06:18:35.442Z,83.25
2022-09-15T06:21:04.828Z,81.39
2022-09-15T06:23:32.017Z,79.36
2022-09-15T06:26:09.183Z,78.71
2022-09-15T06:28:36.030Z,79.28
2022-09-15T06:31:03.264Z,79.48
2022-09-15T06:33:30.100Z,78.69
2022-09-15T06:36:02.085Z,78.35
2022-09-15T06:38:29.502Z,78.02
2022-09-15T06:40:57.919Z,77.27
2022-09-15T06:43:25.207Z,76.68
2022-09-15T06:45:52.137Z,76.82
2022-09-15T06:48:24.960Z,77.20
2022-09-15T06:50:54.697Z,76.94
2022-09-15T06:53:21.824Z,76.46
2022-09-15T06:55:48.903Z,75.26
2022-09-15T06:58:16.124Z,75.43
2022-09-15T07:00:42.970Z,75.49
2022-09-15T07:03:10.039Z,75.50
2022-09-15T07:05:37.425Z,75.02
2022-09-15T07:08:04.286Z,74.78
2022-09-15T07:10:31.556Z,74.01
2022-09-15T07:13:00.734Z,73.69
2022-09-15T07:15:27.871Z,73.19
2022-09-15T07:17:54.769Z,70.88
2022-09-15T07:20:22.394Z,69.05
2022-09-15T07:22:49.464Z,68.98
2022-09-15T07:25:16.532Z,67.91
2022-09-15T07:27:43.934Z,66.32
2022-09-15T07:30:11.610Z,66.34
2022-09-15T07:32:38.329Z,64.31
2022-09-15T07:35:05.633Z,63.92
2022-09-15T07:37:32.844Z,63.28
2022-09-15T07:39:59.880Z,62.41
2022-09-15T07:42:26.834Z,62.95
2022-09-15T07:44:53.579Z,64.72
2022-09-15T07:47:20.244Z,64.02
2022-09-15T07:49:46.934Z,60.32
2022-09-15T07:52:14.069Z,60.29
2022-09-15T07:54:40.961Z,58.58
2022-09-15T07:57:07.585Z,57.87
2022-09-15T07:59:37.184Z,59.00
2022-09-15T08:02:06.092Z,58.99
2022-09-15T08:04:32.824Z,58.74
2022-09-15T08:06:59.534Z,57.91
2022-09-15T08:09:26.147Z,56.06
2022-09-15T08:11:52.698Z,55.46
2022-09-15T08:14:19.262Z,54.47
2022-09-15T08:16:45.919Z,55.96
2022-09-15T08:19:12.853Z,55.54
2022-09-15T08:21:40.013Z,54.06
2022-09-15T08:24:06.570Z,53.09
2022-09-15T08:26:33.104Z,52.41
2022-09-15T08:29:00.467Z,53.30
2022-09-15T08:31:27.214Z,52.14
2022-09-15T08:33:56.688Z,51.69
2022-09-15T08:36:27.275Z,49.51
2022-09-15T08:38:53.867Z,46.89
2022-09-15T08:41:46.255Z,46.48
2022-09-15T08:44:37.969Z,46.61
2022-09-15T08:47:15.818Z,46.77
2022-09-15T08:50:07.658Z,46.27
2022-09-15T08:52:40.057Z,45.27
2022-09-15T08:55:33.990Z,44.84
2022-09-15T08:58:00.685Z,45.05
2022-09-15T09:00:29.194Z,45.47
2022-09-15T09:03:04.831Z,45.12
2022-09-15T09:06:09.039Z,44.99
2022-09-15T09:08:55.672Z,44.00
2022-09-15T09:11:31.116Z,42.54
2022-09-15T09:14:16.357Z,42.08
2022-09-15T09:17:22.837Z,41.63
2022-09-15T09:20:34.639Z,41.97
2022-09-15T09:23:05.293Z,41.68
2022-09-15T09:25:32.128Z,41.43
2022-09-15T09:28:01.656Z,39.69
2022-09-15T09:30:32.794Z,40.54
2022-09-15T09:33:34.447Z,40.53
2022-09-15T09:36:03.265Z,40.40
2022-09-15T09:38:39.407Z,40.49
2022-09-15T09:41:18.098Z,40.61
2022-09-15T09:43:48.833Z,39.60
2022-09-15T09:46:20.781Z,39.58
2022-09-15T09:48:59.239Z,38.65
2022-09-15T09:51:38.350Z,37.09
2022-09-15T09:54:35.064Z,37.35
2022-09-15T09:57:14.491Z,37.46
2022-09-15T09:59:44.469Z,37.08
2022-09-15T10:02:11.156Z,37.67
2022-09-15T10:04:39.285Z,35.87
2022-09-15T10:07:17.888Z,37.04
2022-09-15T10:10:05.408Z,36.42
2022-09-15T10:12:40.943Z,35.84
2022-09-15T10:15:31.369Z,37.74
2022-09-15T10:17:58.154Z,40.31
2022-09-15T10:20:32.180Z,41.62
2022-09-15T10:23:18.495Z,41.54
2022-09-15T10:25:58.722Z,43.11
2022-09-15T10:28:27.922Z,43.94
2022-09-15T10:31:12.971Z,43.35
2022-09-15T10:33:45.822Z,42.99
2022-09-15T10:36:13.828Z,42.93
2022-09-15T10:38:49.605Z,44.09
2022-09-15T10:41:25.380Z,44.51
2022-09-15T10:44:04.327Z,44.85
2022-09-15T10:47:06.731Z,43.44
2022-09-15T10:50:00.380Z,43.98
2022-09-15T10:52:29.017Z,43.12
2022-09-15T10:55:51.201Z,43.27
2022-09-15T10:58:38.959Z,44.76
2022-09-15T11:01:26.055Z,46.03
2022-09-15T11:04:31.077Z,47.23
2022-09-15T11:07:16.686Z,47.73
2022-09-15T11:10:06.691Z,48.13
2022-09-15T11:12:45.574Z,47.55
2022-09-15T11:15:40.290Z,47.61
2022-09-15T11:18:28.366Z,47.95
2022-09-15T11:21:05.734Z,48.68
2022-09-15T11:24:10.735Z,48.49
2022-09-15T11:26:45.530Z,49.27
2022-09-15T11:29:22.944Z,49.48
2022-09-15T11:31:58.278Z,49.47
2022-09-15T11:34:33.144Z,49.96
2022-09-15T11:37:23.804Z,50.29
2022-09-15T11:39:57.559Z,50.07
2022-09-15T11:42:38.807Z,49.79
2022-09-15T11:45:17.079Z,49.01
2022-09-15T11:47:49.778Z,48.66
2022-09-15T11:50:30.015Z,49.14
2022-09-15T11:52:56.825Z,48.86
2022-09-15T11:55:37.768Z,48.82
2022-09-15T11:58:22.135Z,49.72
2022-09-15T12:01:18.795Z,50.39
2022-09-15T12:04:04.579Z,50.36
2022-09-15T12:07:01.352Z,50.10
2022-09-15T12:09:28.857Z,50.23
2022-09-15T12:12:07.178Z,50.04
2022-09-15T12:14:42.198Z,50.32
2022-09-15T12:17:18.759Z,50.28
2022-09-15T12:20:16.928Z,51.04
2022-09-15T12:23:08.123Z,50.88
2022-09-15T12:25:59.075Z,51.60
2022-09-15T12:28:37.782Z,51.78
2022-09-15T12:31:25.980Z,51.78
2022-09-15T12:33:59.965Z,52.09
2022-09-15T12:36:43.931Z,51.58
2022-09-15T12:39:32.064Z,51.00
2022-09-15T12:42:25.231Z,51.66
2022-09-15T12:44:54.117Z,51.25
2022-09-15T12:47:35.452Z,50.27
2022-09-15T12:50:14.100Z,50.05
2022-09-15T12:53:00.905Z,49.28
2022-09-15T12:55:36.263Z,50.12
2022-09-15T12:58:17.833Z,50.83
2022-09-15T13:01:07.136Z,51.56
2022-09-15T13:06:10.304Z,52.26
2022-09-15T13:08:37.344Z,52.69
2022-09-15T13:11:09.041Z,53.17
2022-09-15T13:13:43.291Z,53.45
2022-09-15T13:16:40.732Z,53.43
2022-09-15T13:19:30.345Z,52.49
2022-09-15T13:22:12.586Z,52.26
2022-09-15T13:25:03.229Z,52.62
2022-09-15T13:27:35.784Z,52.90
2022-09-15T13:30:22.061Z,53.29
2022-09-15T13:33:22.365Z,52.77
2022-09-15T13:35:51.803Z,53.38
2022-09-15T13:38:37.479Z,53.54
2022-09-15T13:41:32.409Z,54.12
2022-09-15T13:44:36.174Z,53.05
2022-09-15T13:47:18.945Z,52.13
2022-09-15T13:49:51.536Z,51.79
2022-09-15T13:52:18.014Z,52.36
2022-09-15T13:55:21.029Z,52.43
2022-09-15T14:00:51.174Z,53.14
2022-09-15T14:03:25.317Z,52.92
2022-09-15T14:05:54.037Z,52.68
2022-09-15T14:08:26.551Z,53.01
2022-09-15T14:11:01.462Z,53.40
2022-09-15T14:13:30.084Z,53.96
2022-09-15T14:16:10.427Z,54.13
2022-09-15T14:18:43.890Z,54.23
2022-09-15T14:21:17.525Z,54.43
2022-09-15T14:23:52.870Z,53.92
2022-09-15T14:26:30.213Z,53.27
2022-09-15T14:29:02.791Z,52.83
2022-09-15T14:31:38.556Z,52.62
2022-09-15T14:34:14.773Z,53.03
2022-09-15T14:36:41.708Z,53.71
2022-09-15T14:39:11.137Z,54.44
2022-09-15T14:41:39.637Z,54.33
2022-09-15T14:47:22.396Z,55.22
2022-09-15T14:49:49.267Z,55.20
2022-09-15T14:52:26.729Z,54.95
2022-09-15T14:55:07.558Z,54.73
2022-09-15T14:57:37.993Z,53.93
2022-09-15T15:00:18.651Z,53.39
2022-09-15T15:03:17.522Z,50.74
2022-09-15T15:06:02.332Z,47.36
2022-09-15T15:08:34.908Z,44.97
2022-09-15T15:11:02.026Z,44.22
2022-09-15T15:13:29.358Z,41.93
2022-09-15T15:15:56.170Z,41.41
2022-09-15T15:18:31.702Z,41.98
2022-09-15T15:20:59.817Z,42.23
2022-09-15T15:23:27.366Z,42.09
2022-09-15T15:26:43.249Z,43.35
2022-09-15T15:29:47.705Z,45.68
2022-09-15T15:32:17.346Z,46.25
2022-09-15T15:35:02.640Z,47.46
2022-09-15T15:37:31.711Z,49.20
2022-09-15T15:40:04.768Z,50.31
2022-09-15T15:42:31.794Z,51.65
2022-09-15T15:45:17.004Z,52.88
2022-09-15T15:47:43.634Z,54.16
2022-09-15T15:50:20.290Z,55.11
2022-09-15T15:52:48.734Z,56.00
2022-09-15T15:55:18.803Z,56.62
2022-09-15T15:57:52.796Z,57.36
2022-09-15T16:00:23.795Z,57.85
2022-09-15T16:02:51.734Z,58.41
2022-09-15T16:05:26.159Z,59.04
2022-09-15T16:07:56.547Z,58.98
2022-09-15T16:10:27.557Z,58.83
2022-09-15T16:12:54.365Z,59.33
2022-09-15T16:15:22.174Z,59.77
2022-09-15T16:17:49.345Z,60.01
2022-09-15T16:20:16.721Z,60.23
2022-09-15T16:22:43.671Z,60.66
2022-09-15T16:25:20.764Z,61.17
2022-09-15T16:27:47.636Z,61.49
2022-09-15T16:30:14.255Z,61.88
2022-09-15T16:32:40.848Z,62.25
2022-09-15T16:35:51.396Z,62.30
2022-09-15T16:38:19.808Z,62.53
2022-09-15T16:40:47.633Z,62.87
2022-09-15T16:43:19.057Z,62.87
2022-09-15T16:45:46.192Z,63.19
2022-09-15T16:48:13.215Z,63.36
2022-09-15T16:50:50.309Z,63.48
2022-09-15T16:53:30.532Z,63.59
2022-09-15T16:55:58.057Z,63.83
2022-09-15T16:58:27.697Z,63.98
2022-09-15T17:01:24.378Z,64.33
2022-09-15T17:03:51.434Z,64.55
2022-09-15T17:06:21.641Z,64.82
2022-09-15T17:08:48.846Z,65.14
2022-09-15T17:11:18.353Z,65.33
2022-09-15T17:13:46.335Z,65.44
2022-09-15T17:16:16.994Z,65.64
2022-09-15T17:18:43.682Z,66.03
2022-09-15T17:21:15.778Z,66.08
2022-09-15T17:23:47.974Z,66.49
2022-09-15T17:26:19.618Z,66.72
2022-09-15T17:28:47.067Z,66.81
2022-09-15T17:31:19.894Z,66.95
2022-09-15T17:33:48.626Z,67.09
2022-09-15T17:36:16.086Z,67.14
2022-09-15T17:38:44.903Z,67.31
2022-09-15T17:41:18.449Z,67.59
2022-09-15T17:43:46.754Z,67.65
2022-09-15T17:46:13.486Z,67.77
2022-09-15T17:48:40.261Z,67.90
2022-09-15T17:51:09.981Z,68.13
2022-09-15T17:53:36.624Z,68.38
2022-09-15T17:56:03.437Z,68.61
2022-09-15T17:58:32.001Z,68.63
2022-09-15T18:00:58.987Z,68.80
2022-09-15T18:03:34.102Z,69.03
2022-09-15T18:06:19.275Z,69.25
2022-09-15T18:08:58.759Z,69.62
2022-09-15T18:11:40.874Z,69.82
2022-09-15T18:14:26.216Z,70.16
2022-09-15T18:16:52.994Z,70.36
2022-09-15T18:19:39.876Z,70.65
2022-09-15T18:22:06.594Z,71.13
2022-09-15T18:24:41.998Z,71.32
2022-09-15T18:27:27.095Z,71.38
2022-09-15T18:29:59.930Z,71.51
2022-09-15T18:32:42.725Z,71.66
2022-09-15T18:35:28.385Z,71.66
2022-09-15T18:37:58.113Z,71.80
2022-09-15T18:40:48.829Z,71.76
2022-09-15T18:43:35.281Z,71.93
2022-09-15T18:46:02.343Z,72.20
2022-09-15T18:48:44.358Z,72.32
2022-09-15T18:51:50.440Z,72.35
2022-09-15T18:54:16.296Z,72.61
2022-09-15T18:56:45.837Z,72.75
2022-09-15T18:59:31.484Z,72.88
2022-09-15T19:01:58.373Z,72.91
2022-09-15T19:04:31.024Z,72.82
2022-09-15T19:06:59.075Z,72.96
2022-09-15T19:09:25.668Z,73.04
2022-09-15T19:11:52.284Z,73.16
2022-09-15T19:14:19.094Z,73.05
2022-09-15T19:16:57.657Z,72.85
2022-09-15T19:19:25.165Z,72.71
2022-09-15T19:21:52.019Z,72.66
2022-09-15T19:24:18.895Z,72.37
2022-09-15T19:26:47.244Z,72.36
2022-09-15T19:29:15.195Z,72.23
2022-09-15T19:31:42.332Z,72.16
2022-09-15T19:34:09.056Z,72.03
2022-09-15T19:36:35.974Z,71.95
2022-09-15T19:39:03.414Z,71.95
2022-09-15T19:41:30.473Z,71.81
2022-09-15T19:43:59.756Z,71.58
2022-09-15T19:46:26.607Z,71.54
2022-09-15T19:48:53.846Z,71.75
2022-09-15T19:51:21.623Z,71.47
2022-09-15T19:53:48.367Z,71.25
2022-09-15T19:56:22.007Z,71.47
2022-09-15T19:58:49.484Z,71.55
2022-09-15T20:01:17.710Z,71.37
2022-09-15T20:06:32.640Z,70.93
2022-09-15T20:09:00.136Z,70.87
2022-09-15T20:11:29.651Z,70.68
2022-09-15T20:13:57.369Z,70.46
2022-09-15T20:16:25.299Z,70.34
2022-09-15T20:18:54.270Z,70.31
2022-09-15T20:21:46.279Z,70.16
2022-09-15T20:24:15.247Z,70.17
2022-09-15T20:26:41.933Z,70.37
2022-09-15T20:29:10.369Z,70.20
2022-09-15T20:31:37.096Z,70.37
2022-09-15T20:34:03.761Z,70.69
2022-09-15T20:36:35.444Z,70.78
2022-09-15T20:39:06.019Z,71.15
2022-09-15T20:41:32.982Z,71.29
2022-09-15T20:43:59.976Z,71.37
2022-09-15T20:46:28.906Z,71.67
2022-09-15T20:48:55.538Z,71.89
2022-09-15T20:51:25.744Z,72.07
2022-09-15T20:53:54.342Z,72.48
2022-09-15T20:56:24.938Z,72.83
2022-09-15T20:58:56.435Z,73.24
2022-09-15T21:01:38.074Z,73.52
2022-09-15T21:04:08.722Z,73.77
2022-09-15T21:06:36.542Z,73.90
2022-09-15T21:09:04.214Z,73.99
2022-09-15T21:11:31.154Z,74.16
2022-09-15T21:13:58.377Z,74.40
2022-09-15T21:16:27.569Z,74.55
2022-09-15T21:18:58.054Z,74.85
2022-09-15T21:21:29.496Z,75.02
2022-09-15T21:24:00.564Z,75.30
2022-09-15T21:26:30.938Z,75.50
2022-09-15T21:28:57.905Z,75.80
2022-09-15T21:31:27.723Z,76.04
2022-09-15T21:33:55.401Z,76.47
2022-09-15T21:36:27.596Z,76.64
2022-09-15T21:38:56.419Z,76.62
2022-09-15T21:41:25.813Z,76.78
2022-09-15T21:43:54.966Z,76.94
2022-09-15T21:46:24.284Z,77.23
2022-09-15T21:48:51.235Z,77.32
2022-09-15T21:51:24.615Z,77.89
2022-09-15T21:53:56.161Z,78.06
2022-09-15T21:56:24.444Z,78.13
2022-09-15T21:58:51.376Z,78.56
2022-09-15T22:01:21.544Z,78.79
2022-09-15T22:04:00.725Z,79.11
2022-09-15T22:06:31.347Z,79.19
2022-09-15T22:08:59.614Z,79.49
2022-09-15T22:11:26.465Z,79.74
2022-09-15T22:13:53.377Z,80.08
2022-09-15T22:16:22.357Z,80.18
2022-09-15T22:18:49.944Z,80.14
2022-09-15T22:21:22.540Z,80.54
2022-09-15T22:23:50.623Z,80.63
2022-09-15T22:26:19.866Z,80.75
2022-09-15T22:28:46.691Z,80.60
2022-09-15T22:31:16.243Z,80.74
2022-09-15T22:33:43.144Z,80.81
2022-09-15T22:36:30.687Z,81.10
2022-09-15T22:39:06.332Z,81.24
2022-09-15T22:41:37.707Z,81.18
2022-09-15T22:44:06.488Z,81.31
2022-09-15T22:46:33.832Z,81.36
2022-09-15T22:49:00.418Z,81.70
2022-09-15T22:51:27.139Z,81.82
2022-09-15T22:53:56.149Z,81.95
2022-09-15T22:56:25.188Z,81.98
2022-09-15T22:58:51.923Z,82.01
2022-09-15T23:01:21.181Z,82.15
2022-09-15T23:03:55.699Z,82.27
2022-09-15T23:06:24.045Z,82.27
2022-09-15T23:08:52.893Z,82.19
2022-09-15T23:11:20.498Z,82.37
2022-09-15T23:13:47.590Z,82.47
2022-09-15T23:16:14.283Z,82.68
2022-09-15T23:18:41.218Z,83.01
2022-09-15T23:21:10.153Z,83.23
2022-09-15T23:23:38.867Z,83.21
2022-09-15T23:26:08.226Z,83.13
2022-09-15T23:28:35.878Z,83.22
2022-09-15T23:31:02.570Z,83.35
2022-09-15T23:33:31.596Z,83.49
2022-09-15T23:36:00.969Z,83.54
2022-09-15T23:38:27.868Z,83.67
2022-09-15T23:40:54.425Z,83.64
2022-09-15T23:43:21.711Z,83.63
2022-09-15T23:45:50.594Z,83.58
2022-09-15T23:48:17.347Z,83.72
2022-09-15T23:50:44.984Z,83.82
2022-09-15T23:53:12.806Z,83.73
2022-09-15T23:55:39.435Z,83.83
2022-09-15T23:58:06.161Z,83.95
